sensor_id;sensor_type;location;lat;lon;timestamp;P1;durP1;ratioP1;P2;durP2;ratioP2
80541;SDS011;69870;51.460;8.842;2023-07-28T00:01:58;16.45;;;2.42;;
80541;SDS011;69870;51.460;8.842;2023-07-28T00:04:24;3.30;;;1.85;;
80541;SDS011;69870;51.460;8.842;2023-07-28T00:06:51;10.98;;;1.98;;
80541;SDS011;69870;51.460;8.842;2023-07-28T00:09:17;12.13;;;1.90;;
80541;SDS011;69870;51.460;8.842;2023-07-28T00:11:44;8.98;;;1.45;;
80541;SDS011;69870;51.460;8.842;2023-07-28T00:14:11;6.28;;;1.52;;
80541;SDS011;69870;51.460;8.842;2023-07-28T00:16:39;6.47;;;1.35;;
80541;SDS011;69870;51.460;8.842;2023-07-28T00:19:05;8.55;;;1.35;;
80541;SDS011;69870;51.460;8.842;2023-07-28T00:21:32;5.85;;;1.20;;
80541;SDS011;69870;51.460;8.842;2023-07-28T00:23:58;7.20;;;1.10;;
80541;SDS011;69870;51.460;8.842;2023-07-28T00:26:25;13.15;;;1.77;;
80541;SDS011;69870;51.460;8.842;2023-07-28T00:28:51;7.82;;;1.08;;
80541;SDS011;69870;51.460;8.842;2023-07-28T00:31:18;12.75;;;1.17;;
80541;SDS011;69870;51.460;8.842;2023-07-28T00:33:47;2.35;;;0.50;;
80541;SDS011;69870;51.460;8.842;2023-07-28T00:36:13;2.33;;;1.00;;
80541;SDS011;69870;51.460;8.842;2023-07-28T00:38:40;1.63;;;0.80;;
80541;SDS011;69870;51.460;8.842;2023-07-28T00:41:06;4.20;;;0.80;;
80541;SDS011;69870;51.460;8.842;2023-07-28T00:43:33;8.15;;;1.42;;
80541;SDS011;69870;51.460;8.842;2023-07-28T00:45:59;8.50;;;1.00;;
80541;SDS011;69870;51.460;8.842;2023-07-28T00:48:26;5.00;;;0.95;;
80541;SDS011;69870;51.460;8.842;2023-07-28T00:50:54;3.75;;;0.70;;
80541;SDS011;69870;51.460;8.842;2023-07-28T00:53:21;17.45;;;1.33;;
80541;SDS011;69870;51.460;8.842;2023-07-28T00:55:49;11.43;;;1.23;;
80541;SDS011;69870;51.460;8.842;2023-07-28T00:58:17;4.95;;;0.95;;
80541;SDS011;69870;51.460;8.842;2023-07-28T01:00:44;4.85;;;0.93;;
80541;SDS011;69870;51.460;8.842;2023-07-28T01:03:10;4.25;;;1.00;;
80541;SDS011;69870;51.460;8.842;2023-07-28T01:05:39;9.13;;;0.90;;
80541;SDS011;69870;51.460;8.842;2023-07-28T01:08:19;4.68;;;1.20;;
80541;SDS011;69870;51.460;8.842;2023-07-28T01:10:52;4.97;;;1.00;;
80541;SDS011;69870;51.460;8.842;2023-07-28T01:13:19;5.60;;;1.10;;
80541;SDS011;69870;51.460;8.842;2023-07-28T01:15:46;7.90;;;1.35;;
80541;SDS011;69870;51.460;8.842;2023-07-28T01:18:13;6.68;;;1.85;;
80541;SDS011;69870;51.460;8.842;2023-07-28T01:20:40;7.22;;;1.52;;
80541;SDS011;69870;51.460;8.842;2023-07-28T01:23:11;5.95;;;1.50;;
80541;SDS011;69870;51.460;8.842;2023-07-28T01:25:49;5.53;;;1.95;;
80541;SDS011;69870;51.460;8.842;2023-07-28T01:28:28;8.45;;;1.73;;
80541;SDS011;69870;51.460;8.842;2023-07-28T01:30:56;5.20;;;1.80;;
80541;SDS011;69870;51.460;8.842;2023-07-28T01:33:23;3.58;;;2.08;;
80541;SDS011;69870;51.460;8.842;2023-07-28T01:35:50;3.65;;;2.10;;
80541;SDS011;69870;51.460;8.842;2023-07-28T01:38:16;12.40;;;2.55;;
80541;SDS011;69870;51.460;8.842;2023-07-28T01:40:43;5.25;;;2.08;;
80541;SDS011;69870;51.460;8.842;2023-07-28T01:43:09;22.30;;;2.40;;
80541;SDS011;69870;51.460;8.842;2023-07-28T01:45:37;9.43;;;3.10;;
80541;SDS011;69870;51.460;8.842;2023-07-28T01:48:04;8.85;;;2.30;;
80541;SDS011;69870;51.460;8.842;2023-07-28T01:50:31;8.50;;;2.60;;
80541;SDS011;69870;51.460;8.842;2023-07-28T01:52:57;14.93;;;2.33;;
80541;SDS011;69870;51.460;8.842;2023-07-28T01:55:25;11.75;;;2.17;;
80541;SDS011;69870;51.460;8.842;2023-07-28T01:57:54;10.75;;;2.63;;
80541;SDS011;69870;51.460;8.842;2023-07-28T02:00:22;4.88;;;2.28;;
80541;SDS011;69870;51.460;8.842;2023-07-28T02:02:51;4.15;;;2.17;;
80541;SDS011;69870;51.460;8.842;2023-07-28T02:05:18;6.68;;;2.13;;
80541;SDS011;69870;51.460;8.842;2023-07-28T02:07:45;5.43;;;2.10;;
80541;SDS011;69870;51.460;8.842;2023-07-28T02:10:12;3.45;;;2.08;;
80541;SDS011;69870;51.460;8.842;2023-07-28T02:12:39;8.35;;;2.22;;
80541;SDS011;69870;51.460;8.842;2023-07-28T02:15:06;9.23;;;2.13;;
80541;SDS011;69870;51.460;8.842;2023-07-28T02:17:33;4.78;;;2.08;;
80541;SDS011;69870;51.460;8.842;2023-07-28T02:20:01;7.68;;;2.40;;
80541;SDS011;69870;51.460;8.842;2023-07-28T02:22:28;2.25;;;1.75;;
80541;SDS011;69870;51.460;8.842;2023-07-28T02:24:55;7.75;;;2.15;;
80541;SDS011;69870;51.460;8.842;2023-07-28T02:27:25;4.78;;;1.83;;
80541;SDS011;69870;51.460;8.842;2023-07-28T02:29:54;5.68;;;2.00;;
80541;SDS011;69870;51.460;8.842;2023-07-28T02:32:20;5.80;;;2.10;;
80541;SDS011;69870;51.460;8.842;2023-07-28T02:34:47;5.97;;;1.40;;
80541;SDS011;69870;51.460;8.842;2023-07-28T02:37:15;6.45;;;1.83;;
80541;SDS011;69870;51.460;8.842;2023-07-28T02:39:42;6.82;;;1.63;;
80541;SDS011;69870;51.460;8.842;2023-07-28T02:42:09;8.00;;;2.30;;
80541;SDS011;69870;51.460;8.842;2023-07-28T02:44:35;6.15;;;2.20;;
80541;SDS011;69870;51.460;8.842;2023-07-28T02:47:02;10.40;;;1.80;;
80541;SDS011;69870;51.460;8.842;2023-07-28T02:49:28;18.83;;;2.20;;
80541;SDS011;69870;51.460;8.842;2023-07-28T02:51:55;12.55;;;2.20;;
80541;SDS011;69870;51.460;8.842;2023-07-28T02:54:23;5.40;;;1.95;;
80541;SDS011;69870;51.460;8.842;2023-07-28T02:56:51;7.95;;;2.63;;
80541;SDS011;69870;51.460;8.842;2023-07-28T02:59:19;3.55;;;2.05;;
80541;SDS011;69870;51.460;8.842;2023-07-28T03:01:45;6.75;;;1.98;;
80541;SDS011;69870;51.460;8.842;2023-07-28T03:04:12;3.50;;;2.22;;
80541;SDS011;69870;51.460;8.842;2023-07-28T03:07:02;8.13;;;1.92;;
80541;SDS011;69870;51.460;8.842;2023-07-28T03:09:29;2.60;;;1.67;;
80541;SDS011;69870;51.460;8.842;2023-07-28T03:12:00;4.63;;;1.75;;
80541;SDS011;69870;51.460;8.842;2023-07-28T03:14:28;3.13;;;1.75;;
80541;SDS011;69870;51.460;8.842;2023-07-28T03:16:54;5.65;;;1.95;;
80541;SDS011;69870;51.460;8.842;2023-07-28T03:19:21;6.38;;;2.00;;
80541;SDS011;69870;51.460;8.842;2023-07-28T03:21:48;10.77;;;1.95;;
80541;SDS011;69870;51.460;8.842;2023-07-28T03:24:15;7.28;;;1.50;;
80541;SDS011;69870;51.460;8.842;2023-07-28T03:26:43;12.07;;;1.75;;
80541;SDS011;69870;51.460;8.842;2023-07-28T03:29:09;8.25;;;1.25;;
80541;SDS011;69870;51.460;8.842;2023-07-28T03:31:36;3.95;;;1.10;;
80541;SDS011;69870;51.460;8.842;2023-07-28T03:34:04;5.93;;;1.30;;
80541;SDS011;69870;51.460;8.842;2023-07-28T03:36:30;3.50;;;0.95;;
80541;SDS011;69870;51.460;8.842;2023-07-28T03:38:58;4.90;;;1.10;;
80541;SDS011;69870;51.460;8.842;2023-07-28T03:41:25;6.43;;;0.88;;
80541;SDS011;69870;51.460;8.842;2023-07-28T03:43:52;11.55;;;1.10;;
80541;SDS011;69870;51.460;8.842;2023-07-28T03:46:19;9.27;;;1.05;;
80541;SDS011;69870;51.460;8.842;2023-07-28T03:48:46;2.53;;;0.80;;
80541;SDS011;69870;51.460;8.842;2023-07-28T03:51:12;4.05;;;0.90;;
80541;SDS011;69870;51.460;8.842;2023-07-28T03:53:39;5.68;;;0.73;;
80541;SDS011;69870;51.460;8.842;2023-07-28T03:56:06;0.98;;;0.90;;
80541;SDS011;69870;51.460;8.842;2023-07-28T03:58:32;1.75;;;0.82;;
80541;SDS011;69870;51.460;8.842;2023-07-28T04:01:00;5.15;;;1.10;;
80541;SDS011;69870;51.460;8.842;2023-07-28T04:03:27;2.22;;;0.90;;
80541;SDS011;69870;51.460;8.842;2023-07-28T04:05:53;10.50;;;0.90;;
80541;SDS011;69870;51.460;8.842;2023-07-28T04:08:20;1.52;;;0.90;;
80541;SDS011;69870;51.460;8.842;2023-07-28T04:10:46;4.53;;;1.02;;
80541;SDS011;69870;51.460;8.842;2023-07-28T04:13:13;6.32;;;0.90;;
80541;SDS011;69870;51.460;8.842;2023-07-28T04:15:40;1.05;;;0.70;;
80541;SDS011;69870;51.460;8.842;2023-07-28T04:18:08;8.70;;;0.95;;
80541;SDS011;69870;51.460;8.842;2023-07-28T04:20:34;3.53;;;0.82;;
80541;SDS011;69870;51.460;8.842;2023-07-28T04:23:01;7.15;;;1.00;;
80541;SDS011;69870;51.460;8.842;2023-07-28T04:25:32;10.55;;;0.93;;
80541;SDS011;69870;51.460;8.842;2023-07-28T04:27:59;4.85;;;1.05;;
80541;SDS011;69870;51.460;8.842;2023-07-28T04:30:25;7.53;;;1.08;;
80541;SDS011;69870;51.460;8.842;2023-07-28T04:32:52;11.20;;;1.10;;
80541;SDS011;69870;51.460;8.842;2023-07-28T04:35:25;6.55;;;0.70;;
80541;SDS011;69870;51.460;8.842;2023-07-28T04:38:11;8.75;;;0.90;;
80541;SDS011;69870;51.460;8.842;2023-07-28T04:40:51;0.93;;;0.70;;
80541;SDS011;69870;51.460;8.842;2023-07-28T04:43:23;4.47;;;0.63;;
80541;SDS011;69870;51.460;8.842;2023-07-28T04:45:53;7.03;;;0.95;;
80541;SDS011;69870;51.460;8.842;2023-07-28T04:48:21;9.70;;;1.17;;
80541;SDS011;69870;51.460;8.842;2023-07-28T04:50:50;1.17;;;1.05;;
80541;SDS011;69870;51.460;8.842;2023-07-28T04:53:46;8.80;;;0.90;;
80541;SDS011;69870;51.460;8.842;2023-07-28T04:56:19;5.05;;;0.85;;
80541;SDS011;69870;51.460;8.842;2023-07-28T04:58:46;2.42;;;0.65;;
80541;SDS011;69870;51.460;8.842;2023-07-28T05:01:13;14.02;;;1.10;;
80541;SDS011;69870;51.460;8.842;2023-07-28T05:03:43;1.88;;;0.77;;
80541;SDS011;69870;51.460;8.842;2023-07-28T05:06:19;1.30;;;0.70;;
80541;SDS011;69870;51.460;8.842;2023-07-28T05:08:46;1.48;;;0.95;;
80541;SDS011;69870;51.460;8.842;2023-07-28T05:11:18;1.10;;;0.82;;
80541;SDS011;69870;51.460;8.842;2023-07-28T05:13:45;4.88;;;1.38;;
80541;SDS011;69870;51.460;8.842;2023-07-28T05:16:11;13.80;;;1.33;;
80541;SDS011;69870;51.460;8.842;2023-07-28T05:18:57;6.13;;;0.90;;
80541;SDS011;69870;51.460;8.842;2023-07-28T05:21:51;1.88;;;1.02;;
80541;SDS011;69870;51.460;8.842;2023-07-28T05:24:22;0.95;;;0.80;;
80541;SDS011;69870;51.460;8.842;2023-07-28T05:26:48;1.17;;;0.75;;
80541;SDS011;69870;51.460;8.842;2023-07-28T05:29:15;8.90;;;0.90;;
80541;SDS011;69870;51.460;8.842;2023-07-28T05:31:43;3.63;;;0.80;;
80541;SDS011;69870;51.460;8.842;2023-07-28T05:34:19;3.97;;;1.05;;
80541;SDS011;69870;51.460;8.842;2023-07-28T05:36:46;1.55;;;0.60;;
80541;SDS011;69870;51.460;8.842;2023-07-28T05:39:14;5.35;;;0.60;;
80541;SDS011;69870;51.460;8.842;2023-07-28T05:41:43;8.73;;;0.63;;
80541;SDS011;69870;51.460;8.842;2023-07-28T05:44:12;2.35;;;0.50;;
80541;SDS011;69870;51.460;8.842;2023-07-28T05:46:38;3.08;;;0.60;;
80541;SDS011;69870;51.460;8.842;2023-07-28T05:49:05;2.70;;;0.40;;
80541;SDS011;69870;51.460;8.842;2023-07-28T05:51:32;1.83;;;0.50;;
80541;SDS011;69870;51.460;8.842;2023-07-28T05:53:58;5.30;;;0.55;;
80541;SDS011;69870;51.460;8.842;2023-07-28T05:56:26;0.82;;;0.60;;
80541;SDS011;69870;51.460;8.842;2023-07-28T05:58:53;6.20;;;0.60;;
80541;SDS011;69870;51.460;8.842;2023-07-28T06:01:19;4.43;;;0.73;;
80541;SDS011;69870;51.460;8.842;2023-07-28T06:04:05;1.10;;;0.68;;
80541;SDS011;69870;51.460;8.842;2023-07-28T06:06:38;4.55;;;0.95;;
80541;SDS011;69870;51.460;8.842;2023-07-28T06:09:05;4.30;;;1.00;;
80541;SDS011;69870;51.460;8.842;2023-07-28T06:11:35;5.25;;;1.88;;
80541;SDS011;69870;51.460;8.842;2023-07-28T06:14:02;1.98;;;1.30;;
80541;SDS011;69870;51.460;8.842;2023-07-28T06:16:32;3.53;;;1.25;;
80541;SDS011;69870;51.460;8.842;2023-07-28T06:18:59;3.80;;;1.00;;
80541;SDS011;69870;51.460;8.842;2023-07-28T06:21:26;1.50;;;1.05;;
80541;SDS011;69870;51.460;8.842;2023-07-28T06:23:52;2.67;;;1.38;;
80541;SDS011;69870;51.460;8.842;2023-07-28T06:26:19;5.80;;;1.63;;
80541;SDS011;69870;51.460;8.842;2023-07-28T06:28:47;8.55;;;1.33;;
80541;SDS011;69870;51.460;8.842;2023-07-28T06:31:14;7.78;;;1.80;;
80541;SDS011;69870;51.460;8.842;2023-07-28T06:33:40;6.05;;;1.73;;
80541;SDS011;69870;51.460;8.842;2023-07-28T06:36:07;4.80;;;1.70;;
80541;SDS011;69870;51.460;8.842;2023-07-28T06:38:34;4.43;;;1.23;;
80541;SDS011;69870;51.460;8.842;2023-07-28T06:41:00;2.65;;;1.48;;
80541;SDS011;69870;51.460;8.842;2023-07-28T06:43:27;10.02;;;1.52;;
80541;SDS011;69870;51.460;8.842;2023-07-28T06:45:55;3.05;;;1.40;;
80541;SDS011;69870;51.460;8.842;2023-07-28T06:48:22;2.03;;;1.35;;
80541;SDS011;69870;51.460;8.842;2023-07-28T06:50:48;3.50;;;1.35;;
80541;SDS011;69870;51.460;8.842;2023-07-28T06:53:15;5.45;;;1.50;;
80541;SDS011;69870;51.460;8.842;2023-07-28T06:55:42;5.78;;;1.30;;
80541;SDS011;69870;51.460;8.842;2023-07-28T06:58:09;2.05;;;1.05;;
80541;SDS011;69870;51.460;8.842;2023-07-28T07:00:36;6.22;;;1.13;;
80541;SDS011;69870;51.460;8.842;2023-07-28T07:03:04;12.65;;;1.73;;
80541;SDS011;69870;51.460;8.842;2023-07-28T07:05:31;3.45;;;1.25;;
80541;SDS011;69870;51.460;8.842;2023-07-28T07:07:58;3.95;;;1.00;;
80541;SDS011;69870;51.460;8.842;2023-07-28T07:10:26;5.43;;;1.23;;
80541;SDS011;69870;51.460;8.842;2023-07-28T07:12:53;1.60;;;1.00;;
80541;SDS011;69870;51.460;8.842;2023-07-28T07:15:21;4.20;;;1.25;;
80541;SDS011;69870;51.460;8.842;2023-07-28T07:17:48;4.10;;;1.15;;
80541;SDS011;69870;51.460;8.842;2023-07-28T07:20:16;6.90;;;1.33;;
80541;SDS011;69870;51.460;8.842;2023-07-28T07:22:42;3.22;;;2.25;;
80541;SDS011;69870;51.460;8.842;2023-07-28T07:25:09;4.80;;;1.60;;
80541;SDS011;69870;51.460;8.842;2023-07-28T07:27:35;1.90;;;1.33;;
80541;SDS011;69870;51.460;8.842;2023-07-28T07:30:02;1.60;;;1.50;;
80541;SDS011;69870;51.460;8.842;2023-07-28T07:32:29;2.83;;;1.90;;
80541;SDS011;69870;51.460;8.842;2023-07-28T07:34:56;3.25;;;1.95;;
80541;SDS011;69870;51.460;8.842;2023-07-28T07:37:24;2.38;;;1.88;;
80541;SDS011;69870;51.460;8.842;2023-07-28T07:39:50;4.03;;;2.45;;
80541;SDS011;69870;51.460;8.842;2023-07-28T07:42:17;4.43;;;2.30;;
80541;SDS011;69870;51.460;8.842;2023-07-28T07:44:43;5.70;;;2.80;;
80541;SDS011;69870;51.460;8.842;2023-07-28T07:47:13;3.60;;;2.40;;
80541;SDS011;69870;51.460;8.842;2023-07-28T07:49:41;2.03;;;1.83;;
80541;SDS011;69870;51.460;8.842;2023-07-28T07:52:08;6.85;;;2.55;;
80541;SDS011;69870;51.460;8.842;2023-07-28T07:54:36;5.00;;;2.20;;
80541;SDS011;69870;51.460;8.842;2023-07-28T07:57:03;6.13;;;2.40;;
80541;SDS011;69870;51.460;8.842;2023-07-28T07:59:30;3.67;;;2.35;;
80541;SDS011;69870;51.460;8.842;2023-07-28T08:01:58;2.50;;;2.28;;
80541;SDS011;69870;51.460;8.842;2023-07-28T08:04:27;5.10;;;3.03;;
80541;SDS011;69870;51.460;8.842;2023-07-28T08:06:54;2.30;;;2.10;;
80541;SDS011;69870;51.460;8.842;2023-07-28T08:09:21;4.78;;;2.33;;
80541;SDS011;69870;51.460;8.842;2023-07-28T08:11:49;3.50;;;2.97;;
80541;SDS011;69870;51.460;8.842;2023-07-28T08:14:16;3.75;;;2.40;;
80541;SDS011;69870;51.460;8.842;2023-07-28T08:16:42;5.53;;;2.83;;
80541;SDS011;69870;51.460;8.842;2023-07-28T08:19:09;4.13;;;2.45;;
80541;SDS011;69870;51.460;8.842;2023-07-28T08:21:35;10.73;;;3.17;;
80541;SDS011;69870;51.460;8.842;2023-07-28T08:24:02;6.18;;;2.85;;
80541;SDS011;69870;51.460;8.842;2023-07-28T08:26:29;9.13;;;3.33;;
80541;SDS011;69870;51.460;8.842;2023-07-28T08:28:57;4.97;;;3.47;;
80541;SDS011;69870;51.460;8.842;2023-07-28T08:31:23;5.30;;;3.33;;
80541;SDS011;69870;51.460;8.842;2023-07-28T08:33:50;5.40;;;3.35;;
80541;SDS011;69870;51.460;8.842;2023-07-28T08:36:17;4.53;;;3.45;;
80541;SDS011;69870;51.460;8.842;2023-07-28T08:38:43;4.70;;;3.58;;
80541;SDS011;69870;51.460;8.842;2023-07-28T08:41:10;5.82;;;3.08;;
80541;SDS011;69870;51.460;8.842;2023-07-28T08:43:37;7.22;;;4.03;;
80541;SDS011;69870;51.460;8.842;2023-07-28T08:46:05;5.70;;;3.80;;
80541;SDS011;69870;51.460;8.842;2023-07-28T08:48:32;6.95;;;3.80;;
80541;SDS011;69870;51.460;8.842;2023-07-28T08:50:58;7.50;;;4.05;;
80541;SDS011;69870;51.460;8.842;2023-07-28T08:53:25;6.75;;;3.88;;
80541;SDS011;69870;51.460;8.842;2023-07-28T08:55:51;6.50;;;4.35;;
80541;SDS011;69870;51.460;8.842;2023-07-28T08:58:19;6.18;;;4.03;;
80541;SDS011;69870;51.460;8.842;2023-07-28T09:00:47;5.93;;;4.00;;
80541;SDS011;69870;51.460;8.842;2023-07-28T09:03:16;4.22;;;3.42;;
80541;SDS011;69870;51.460;8.842;2023-07-28T09:05:43;6.43;;;5.15;;
80541;SDS011;69870;51.460;8.842;2023-07-28T09:08:11;6.05;;;4.60;;
80541;SDS011;69870;51.460;8.842;2023-07-28T09:10:41;9.73;;;4.43;;
80541;SDS011;69870;51.460;8.842;2023-07-28T09:13:09;8.45;;;4.45;;
80541;SDS011;69870;51.460;8.842;2023-07-28T09:15:37;8.93;;;4.43;;
80541;SDS011;69870;51.460;8.842;2023-07-28T09:18:03;4.22;;;3.35;;
80541;SDS011;69870;51.460;8.842;2023-07-28T09:20:34;4.72;;;4.15;;
80541;SDS011;69870;51.460;8.842;2023-07-28T09:23:02;7.57;;;3.75;;
80541;SDS011;69870;51.460;8.842;2023-07-28T09:25:30;6.03;;;3.80;;
80541;SDS011;69870;51.460;8.842;2023-07-28T09:27:58;7.25;;;3.35;;
80541;SDS011;69870;51.460;8.842;2023-07-28T09:30:25;3.42;;;2.90;;
80541;SDS011;69870;51.460;8.842;2023-07-28T09:32:53;4.45;;;2.78;;
80541;SDS011;69870;51.460;8.842;2023-07-28T09:35:20;5.78;;;3.30;;
80541;SDS011;69870;51.460;8.842;2023-07-28T09:37:49;4.90;;;2.60;;
80541;SDS011;69870;51.460;8.842;2023-07-28T09:40:18;6.22;;;2.80;;
80541;SDS011;69870;51.460;8.842;2023-07-28T09:42:46;3.17;;;1.80;;
80541;SDS011;69870;51.460;8.842;2023-07-28T09:45:15;2.72;;;1.95;;
80541;SDS011;69870;51.460;8.842;2023-07-28T09:47:44;3.00;;;1.55;;
80541;SDS011;69870;51.460;8.842;2023-07-28T09:50:12;4.53;;;1.80;;
80541;SDS011;69870;51.460;8.842;2023-07-28T09:52:42;5.05;;;1.88;;
80541;SDS011;69870;51.460;8.842;2023-07-28T09:55:11;4.40;;;2.10;;
80541;SDS011;69870;51.460;8.842;2023-07-28T09:57:43;2.50;;;1.90;;
80541;SDS011;69870;51.460;8.842;2023-07-28T10:04:00;8.55;;;2.60;;
80541;SDS011;69870;51.460;8.842;2023-07-28T10:06:27;6.10;;;2.55;;
80541;SDS011;69870;51.460;8.842;2023-07-28T10:08:55;5.80;;;2.72;;
80541;SDS011;69870;51.460;8.842;2023-07-28T10:11:22;6.80;;;2.58;;
80541;SDS011;69870;51.460;8.842;2023-07-28T10:13:50;4.97;;;2.47;;
80541;SDS011;69870;51.460;8.842;2023-07-28T10:16:17;3.85;;;2.92;;
80541;SDS011;69870;51.460;8.842;2023-07-28T10:18:51;5.35;;;3.42;;
80541;SDS011;69870;51.460;8.842;2023-07-28T10:21:19;4.15;;;3.05;;
80541;SDS011;69870;51.460;8.842;2023-07-28T10:23:48;3.95;;;3.13;;
80541;SDS011;69870;51.460;8.842;2023-07-28T10:26:29;6.40;;;2.97;;
80541;SDS011;69870;51.460;8.842;2023-07-28T10:29:07;4.38;;;3.00;;
80541;SDS011;69870;51.460;8.842;2023-07-28T10:31:35;4.15;;;3.17;;
80541;SDS011;69870;51.460;8.842;2023-07-28T10:34:02;5.07;;;3.72;;
80541;SDS011;69870;51.460;8.842;2023-07-28T10:36:32;8.48;;;3.75;;
80541;SDS011;69870;51.460;8.842;2023-07-28T10:39:00;4.88;;;3.38;;
80541;SDS011;69870;51.460;8.842;2023-07-28T10:41:39;8.57;;;3.75;;
80541;SDS011;69870;51.460;8.842;2023-07-28T10:44:08;6.45;;;4.07;;
80541;SDS011;69870;51.460;8.842;2023-07-28T10:46:35;7.10;;;3.78;;
80541;SDS011;69870;51.460;8.842;2023-07-28T10:49:04;13.27;;;3.78;;
80541;SDS011;69870;51.460;8.842;2023-07-28T10:51:31;8.93;;;4.30;;
80541;SDS011;69870;51.460;8.842;2023-07-28T10:53:59;13.70;;;4.15;;
80541;SDS011;69870;51.460;8.842;2023-07-28T10:56:28;11.07;;;4.65;;
80541;SDS011;69870;51.460;8.842;2023-07-28T10:58:59;7.68;;;4.10;;
80541;SDS011;69870;51.460;8.842;2023-07-28T11:01:30;4.60;;;3.22;;
80541;SDS011;69870;51.460;8.842;2023-07-28T11:04:05;8.05;;;3.72;;
80541;SDS011;69870;51.460;8.842;2023-07-28T11:09:38;5.97;;;3.70;;
80541;SDS011;69870;51.460;8.842;2023-07-28T11:12:08;5.95;;;4.07;;
80541;SDS011;69870;51.460;8.842;2023-07-28T11:14:38;7.32;;;3.25;;
80541;SDS011;69870;51.460;8.842;2023-07-28T11:17:05;5.95;;;3.72;;
80541;SDS011;69870;51.460;8.842;2023-07-28T11:19:33;4.85;;;3.20;;
80541;SDS011;69870;51.460;8.842;2023-07-28T11:21:59;6.63;;;3.50;;
80541;SDS011;69870;51.460;8.842;2023-07-28T11:24:26;4.43;;;3.45;;
80541;SDS011;69870;51.460;8.842;2023-07-28T11:26:52;5.18;;;3.55;;
80541;SDS011;69870;51.460;8.842;2023-07-28T11:29:20;7.35;;;4.00;;
80541;SDS011;69870;51.460;8.842;2023-07-28T11:31:48;7.82;;;3.50;;
80541;SDS011;69870;51.460;8.842;2023-07-28T11:34:16;8.52;;;4.05;;
80541;SDS011;69870;51.460;8.842;2023-07-28T11:36:43;5.53;;;3.78;;
80541;SDS011;69870;51.460;8.842;2023-07-28T11:39:10;5.45;;;3.80;;
80541;SDS011;69870;51.460;8.842;2023-07-28T11:41:37;6.82;;;4.15;;
80541;SDS011;69870;51.460;8.842;2023-07-28T11:44:04;4.00;;;3.40;;
80541;SDS011;69870;51.460;8.842;2023-07-28T11:46:32;7.65;;;3.50;;
80541;SDS011;69870;51.460;8.842;2023-07-28T11:49:11;11.90;;;3.35;;
80541;SDS011;69870;51.460;8.842;2023-07-28T11:51:39;6.72;;;3.40;;
80541;SDS011;69870;51.460;8.842;2023-07-28T11:54:10;5.38;;;3.22;;
80541;SDS011;69870;51.460;8.842;2023-07-28T11:56:37;11.80;;;3.83;;
80541;SDS011;69870;51.460;8.842;2023-07-28T11:59:04;3.53;;;2.45;;
80541;SDS011;69870;51.460;8.842;2023-07-28T12:01:30;3.53;;;2.65;;
80541;SDS011;69870;51.460;8.842;2023-07-28T12:03:57;3.88;;;2.88;;
80541;SDS011;69870;51.460;8.842;2023-07-28T12:06:27;3.78;;;2.35;;
80541;SDS011;69870;51.460;8.842;2023-07-28T12:09:03;3.60;;;2.22;;
80541;SDS011;69870;51.460;8.842;2023-07-28T12:11:33;5.32;;;2.42;;
80541;SDS011;69870;51.460;8.842;2023-07-28T12:14:00;2.75;;;1.85;;
80541;SDS011;69870;51.460;8.842;2023-07-28T12:16:38;3.65;;;2.15;;
80541;SDS011;69870;51.460;8.842;2023-07-28T12:19:06;1.33;;;1.10;;
80541;SDS011;69870;51.460;8.842;2023-07-28T12:21:35;3.28;;;1.25;;
80541;SDS011;69870;51.460;8.842;2023-07-28T12:24:02;1.13;;;1.02;;
80541;SDS011;69870;51.460;8.842;2023-07-28T12:26:29;5.05;;;1.65;;
80541;SDS011;69870;51.460;8.842;2023-07-28T12:28:56;2.22;;;1.42;;
80541;SDS011;69870;51.460;8.842;2023-07-28T12:31:22;2.92;;;1.30;;
80541;SDS011;69870;51.460;8.842;2023-07-28T12:33:49;3.47;;;1.27;;
80541;SDS011;69870;51.460;8.842;2023-07-28T12:36:15;5.15;;;1.10;;
80541;SDS011;69870;51.460;8.842;2023-07-28T12:38:43;1.60;;;1.00;;
80541;SDS011;69870;51.460;8.842;2023-07-28T12:41:10;2.35;;;1.17;;
80541;SDS011;69870;51.460;8.842;2023-07-28T12:43:36;1.77;;;1.25;;
80541;SDS011;69870;51.460;8.842;2023-07-28T12:46:03;1.30;;;1.20;;
80541;SDS011;69870;51.460;8.842;2023-07-28T12:48:30;1.50;;;1.10;;
80541;SDS011;69870;51.460;8.842;2023-07-28T12:50:56;3.35;;;1.25;;
80541;SDS011;69870;51.460;8.842;2023-07-28T12:53:23;3.55;;;1.27;;
80541;SDS011;69870;51.460;8.842;2023-07-28T12:55:51;3.65;;;1.23;;
80541;SDS011;69870;51.460;8.842;2023-07-28T12:58:17;3.22;;;1.20;;
80541;SDS011;69870;51.460;8.842;2023-07-28T13:00:44;5.15;;;1.38;;
80541;SDS011;69870;51.460;8.842;2023-07-28T13:03:10;3.95;;;1.10;;
80541;SDS011;69870;51.460;8.842;2023-07-28T13:05:37;1.13;;;1.02;;
80541;SDS011;69870;51.460;8.842;2023-07-28T13:08:03;1.25;;;1.15;;
80541;SDS011;69870;51.460;8.842;2023-07-28T13:10:30;3.97;;;1.23;;
80541;SDS011;69870;51.460;8.842;2023-07-28T13:12:58;3.58;;;1.60;;
80541;SDS011;69870;51.460;8.842;2023-07-28T13:15:24;3.38;;;1.20;;
80541;SDS011;69870;51.460;8.842;2023-07-28T13:17:51;1.20;;;1.10;;
80541;SDS011;69870;51.460;8.842;2023-07-28T13:20:18;1.55;;;1.35;;
80541;SDS011;69870;51.460;8.842;2023-07-28T13:22:44;2.47;;;1.52;;
80541;SDS011;69870;51.460;8.842;2023-07-28T13:25:11;3.47;;;1.10;;
80541;SDS011;69870;51.460;8.842;2023-07-28T13:27:38;3.88;;;1.17;;
80541;SDS011;69870;51.460;8.842;2023-07-28T13:30:07;2.05;;;1.52;;
80541;SDS011;69870;51.460;8.842;2023-07-28T13:32:34;2.65;;;1.60;;
80541;SDS011;69870;51.460;8.842;2023-07-28T13:35:00;1.58;;;1.40;;
80541;SDS011;69870;51.460;8.842;2023-07-28T13:37:27;5.63;;;1.60;;
80541;SDS011;69870;51.460;8.842;2023-07-28T13:39:53;5.20;;;1.60;;
80541;SDS011;69870;51.460;8.842;2023-07-28T13:42:20;6.80;;;1.65;;
80541;SDS011;69870;51.460;8.842;2023-07-28T13:44:46;2.05;;;1.45;;
80541;SDS011;69870;51.460;8.842;2023-07-28T13:47:14;3.13;;;1.48;;
80541;SDS011;69870;51.460;8.842;2023-07-28T13:49:41;5.90;;;1.73;;
80541;SDS011;69870;51.460;8.842;2023-07-28T13:52:07;1.60;;;1.50;;
80541;SDS011;69870;51.460;8.842;2023-07-28T13:54:34;5.47;;;1.88;;
80541;SDS011;69870;51.460;8.842;2023-07-28T13:57:01;2.05;;;1.83;;
80541;SDS011;69870;51.460;8.842;2023-07-28T13:59:27;3.13;;;1.83;;
80541;SDS011;69870;51.460;8.842;2023-07-28T14:01:54;5.90;;;1.92;;
80541;SDS011;69870;51.460;8.842;2023-07-28T14:04:22;5.35;;;2.35;;
80541;SDS011;69870;51.460;8.842;2023-07-28T14:06:49;5.00;;;1.85;;
80541;SDS011;69870;51.460;8.842;2023-07-28T14:09:15;3.00;;;2.03;;
80541;SDS011;69870;51.460;8.842;2023-07-28T14:11:42;2.58;;;2.38;;
80541;SDS011;69870;51.460;8.842;2023-07-28T14:14:08;2.00;;;1.80;;
80541;SDS011;69870;51.460;8.842;2023-07-28T14:16:35;1.70;;;1.60;;
80541;SDS011;69870;51.460;8.842;2023-07-28T14:19:01;7.22;;;2.08;;
80541;SDS011;69870;51.460;8.842;2023-07-28T14:21:30;9.90;;;2.08;;
80541;SDS011;69870;51.460;8.842;2023-07-28T14:23:57;3.33;;;2.00;;
80541;SDS011;69870;51.460;8.842;2023-07-28T14:26:24;7.00;;;2.20;;
80541;SDS011;69870;51.460;8.842;2023-07-28T14:28:50;7.72;;;2.38;;
80541;SDS011;69870;51.460;8.842;2023-07-28T14:31:17;6.72;;;2.28;;
80541;SDS011;69870;51.460;8.842;2023-07-28T14:33:44;4.50;;;2.35;;
80541;SDS011;69870;51.460;8.842;2023-07-28T14:36:10;5.38;;;2.60;;
80541;SDS011;69870;51.460;8.842;2023-07-28T14:38:39;4.95;;;2.70;;
80541;SDS011;69870;51.460;8.842;2023-07-28T14:41:05;4.20;;;2.95;;
80541;SDS011;69870;51.460;8.842;2023-07-28T14:43:32;3.55;;;2.75;;
80541;SDS011;69870;51.460;8.842;2023-07-28T14:45:58;9.13;;;2.60;;
80541;SDS011;69870;51.460;8.842;2023-07-28T14:48:25;10.13;;;2.67;;
80541;SDS011;69870;51.460;8.842;2023-07-28T14:50:52;3.65;;;2.72;;
80541;SDS011;69870;51.460;8.842;2023-07-28T14:53:28;2.78;;;2.50;;
80541;SDS011;69870;51.460;8.842;2023-07-28T14:55:56;3.28;;;2.95;;
80541;SDS011;69870;51.460;8.842;2023-07-28T14:58:23;2.58;;;2.38;;